Time;durP1;ratioP1;P1;durP2;ratioP2;P2;SDS_P1;SDS_P2;PMS_P1;PMS_P2;Temp;Humidity;BMP_temperature;BMP_pressure;BME280_temperature;BME280_humidity;BME280_pressure;Samples;Min_cycle;Max_cycle;Signal;HPM_P1;HPM_P2
2022/10/09 00:02:18;;;;;;;6.80;4.03;;;10.20;99.90;;;;;;5068244;28;20032;-80
2022/10/09 00:04:43;;;;;;;9.40;4.03;;;10.20;99.90;;;;;;5066535;28;20331;-81
2022/10/09 00:07:09;;;;;;;7.82;4.75;;;10.10;99.90;;;;;;5066100;28;20024;-81
2022/10/09 00:09:34;;;;;;;7.82;4.90;;;10.10;99.90;;;;;;5069397;28;20044;-81
2022/10/09 00:12:00;;;;;;;7.40;5.00;;;10.10;99.90;;;;;;5069027;28;20040;-81
2022/10/09 00:14:25;;;;;;;9.00;4.57;;;10.10;99.90;;;;;;5073577;28;20127;-81
2022/10/09 00:16:53;;;;;;;12.25;4.97;;;10.10;99.90;;;;;;5078595;28;20193;-81
2022/10/09 00:19:19;;;;;;;6.60;4.30;;;10.10;99.90;;;;;;5073547;28;20071;-80
2022/10/09 00:21:44;;;;;;;7.32;4.00;;;10.10;99.90;;;;;;5069537;28;20479;-80
2022/10/09 00:24:10;;;;;;;8.88;4.10;;;10.10;99.90;;;;;;5070308;28;20036;-82
2022/10/09 00:26:35;;;;;;;6.93;4.05;;;10.00;99.90;;;;;;5078475;28;20090;-80
2022/10/09 00:29:01;;;;;;;7.63;4.90;;;10.10;99.90;;;;;;5067889;28;20773;-81
2022/10/09 00:31:26;;;;;;;6.53;4.05;;;10.10;99.90;;;;;;5050806;28;20029;-82
2022/10/09 00:33:52;;;;;;;7.75;3.97;;;10.00;99.90;;;;;;5063941;28;20039;-81
2022/10/09 00:36:20;;;;;;;6.22;4.45;;;10.00;99.90;;;;;;5062740;28;20450;-81
2022/10/09 00:38:46;;;;;;;7.18;4.30;;;10.00;99.90;;;;;;5065039;28;20047;-81
2022/10/09 00:41:15;;;;;;;6.10;4.28;;;9.90;99.90;;;;;;5048695;28;20752;-82
2022/10/09 00:43:48;;;;;;;10.43;3.75;;;9.90;99.90;;;;;;5071050;28;20028;-81
2022/10/09 00:46:27;;;;;;;6.13;3.95;;;9.90;99.90;;;;;;5066151;28;20028;-81
2022/10/09 00:49:04;;;;;;;6.80;3.78;;;9.90;99.90;;;;;;5066744;28;20047;-82
2022/10/09 00:51:32;;;;;;;9.82;4.10;;;9.80;99.90;;;;;;5066738;28;20079;-79
2022/10/09 00:53:59;;;;;;;6.25;3.30;;;9.80;99.90;;;;;;5047162;28;20084;-81
2022/10/09 00:56:25;;;;;;;7.55;4.18;;;9.80;99.90;;;;;;5065281;28;20038;-80
2022/10/09 00:58:53;;;;;;;7.72;4.28;;;9.70;99.90;;;;;;5069362;28;22353;-80
2022/10/09 01:01:19;;;;;;;6.57;3.60;;;9.70;99.90;;;;;;5074025;28;20052;-81
2022/10/09 01:03:45;;;;;;;10.35;3.38;;;9.70;99.90;;;;;;5068605;28;20071;-82
2022/10/09 01:06:25;;;;;;;7.30;3.63;;;9.70;99.90;;;;;;5066267;28;20032;-82
2022/10/09 01:08:59;;;;;;;8.70;4.13;;;9.70;99.90;;;;;;5066889;28;20036;-82
2022/10/09 01:11:37;;;;;;;5.90;3.63;;;9.60;99.90;;;;;;5047880;28;20604;-81
2022/10/09 01:14:27;;;;;;;5.80;3.47;;;9.60;99.90;;;;;;5070760;28;20032;-82
2022/10/09 01:17:12;;;;;;;5.45;3.47;;;9.60;99.90;;;;;;5007213;28;20054;-80
2022/10/09 01:20:10;;;;;;;4.20;3.55;;;9.60;99.90;;;;;;5065737;28;20024;-82
2022/10/09 01:23:10;;;;;;;6.40;4.28;;;9.50;99.90;;;;;;5060747;28;20696;-83
2022/10/09 01:25:49;;;;;;;8.40;3.67;;;9.50;99.90;;;;;;5067132;28;20028;-81
2022/10/09 01:28:17;;;;;;;9.63;4.25;;;9.50;99.90;;;;;;5064362;28;20119;-84
2022/10/09 01:30:44;;;;;;;5.53;3.63;;;9.50;99.90;;;;;;5069059;28;20386;-83
2022/10/09 01:33:10;;;;;;;6.57;3.78;;;9.40;99.90;;;;;;5051106;28;20396;-81
2022/10/09 01:35:37;;;;;;;5.22;3.45;;;9.40;99.90;;;;;;5065122;28;20584;-81
2022/10/09 01:38:04;;;;;;;10.43;3.78;;;9.40;99.90;;;;;;5051553;28;20062;-81
2022/10/09 01:40:30;;;;;;;6.32;3.65;;;9.40;99.90;;;;;;5051283;28;20059;-81
2022/10/09 01:42:58;;;;;;;6.78;3.80;;;9.30;99.90;;;;;;5068579;28;20029;-81
2022/10/09 01:45:24;;;;;;;5.88;3.58;;;9.30;99.90;;;;;;5067987;28;20027;-82
2022/10/09 01:47:49;;;;;;;5.85;4.78;;;9.30;99.90;;;;;;5067688;28;20545;-81
2022/10/09 01:50:24;;;;;;;7.80;3.72;;;9.30;99.90;;;;;;5072062;28;20119;-80
2022/10/09 01:52:58;;;;;;;5.40;3.65;;;9.30;99.90;;;;;;5067667;28;20115;-80
2022/10/09 01:55:29;;;;;;;9.45;3.97;;;9.30;99.90;;;;;;5065743;28;20028;-80
2022/10/09 01:58:23;;;;;;;5.53;3.20;;;9.20;99.90;;;;;;5068713;28;20069;-82
2022/10/09 02:01:03;;;;;;;4.70;3.67;;;9.20;99.90;;;;;;5038321;28;20545;-81
2022/10/09 02:03:30;;;;;;;5.40;3.38;;;9.10;99.90;;;;;;5061746;28;20083;-81
2022/10/09 02:05:56;;;;;;;6.22;3.60;;;9.10;99.90;;;;;;5067736;28;20028;-80
2022/10/09 02:08:24;;;;;;;6.22;3.78;;;9.10;99.90;;;;;;5066456;28;20055;-80
2022/10/09 02:10:55;;;;;;;6.47;4.20;;;9.10;99.90;;;;;;5062801;28;20036;-79
2022/10/09 02:13:21;;;;;;;12.07;4.13;;;9.10;99.90;;;;;;5069853;28;20044;-80
2022/10/09 02:15:54;;;;;;;5.18;3.55;;;9.00;99.90;;;;;;5067892;28;20510;-80
2022/10/09 02:18:31;;;;;;;;;;;9.00;99.90;;;;;;5066054;28;20037;-80
2022/10/09 02:21:07;;;;;;;7.47;3.95;;;9.00;99.90;;;;;;5050421;28;19995;-81
2022/10/09 02:23:36;;;;;;;9.45;4.47;;;9.00;99.90;;;;;;5061532;28;20082;-81
2022/10/09 02:26:01;;;;;;;10.35;4.28;;;9.00;99.90;;;;;;5070989;28;20035;-82
2022/10/09 02:28:27;;;;;;;6.63;4.47;;;9.00;99.90;;;;;;5070003;28;20040;-82
2022/10/09 02:31:14;;;;;;;6.30;4.03;;;8.90;99.90;;;;;;5068820;28;20075;-81
2022/10/09 02:33:40;;;;;;;5.50;4.28;;;9.00;99.90;;;;;;5047347;28;20028;-80
2022/10/09 02:36:06;;;;;;;6.43;4.30;;;9.00;99.90;;;;;;5066694;28;20028;-82
2022/10/09 02:38:31;;;;;;;8.32;5.10;;;8.90;99.90;;;;;;5066577;28;20025;-80
2022/10/09 02:40:59;;;;;;;10.30;4.68;;;8.90;99.90;;;;;;5066377;28;20052;-80
2022/10/09 02:43:24;;;;;;;8.25;4.32;;;8.90;99.90;;;;;;5066397;28;20032;-81
2022/10/09 02:45:50;;;;;;;10.02;5.07;;;8.90;99.90;;;;;;5066569;28;20487;-81
2022/10/09 02:48:15;;;;;;;7.68;4.88;;;8.90;99.90;;;;;;5067794;28;20032;-82
2022/10/09 02:50:41;;;;;;;9.23;4.95;;;8.80;99.90;;;;;;5050183;28;20147;-82
2022/10/09 02:53:06;;;;;;;9.73;3.85;;;8.80;99.90;;;;;;5069598;28;20039;-81
2022/10/09 02:55:32;;;;;;;6.70;4.53;;;8.70;99.90;;;;;;5066525;28;20036;-81
2022/10/09 02:57:57;;;;;;;6.88;4.80;;;8.70;99.90;;;;;;5065668;28;20047;-82
2022/10/09 03:00:23;;;;;;;6.88;4.60;;;8.70;99.90;;;;;;5066900;28;20021;-81
2022/10/09 03:02:48;;;;;;;7.65;4.78;;;8.70;99.90;;;;;;5067662;28;20025;-81
2022/10/09 03:05:14;;;;;;;9.05;4.15;;;8.70;99.90;;;;;;5068316;28;20120;-82
2022/10/09 03:07:39;;;;;;;8.70;4.25;;;8.70;99.90;;;;;;5060354;28;20048;-81
2022/10/09 03:10:05;;;;;;;6.65;4.10;;;8.70;99.90;;;;;;5067902;28;20044;-81
2022/10/09 03:12:31;;;;;;;7.68;4.85;;;8.70;99.90;;;;;;5072115;28;20032;-81
2022/10/09 03:14:56;;;;;;;5.93;4.30;;;8.60;99.90;;;;;;5067582;28;20075;-81
2022/10/09 03:17:22;;;;;;;6.35;4.25;;;8.60;99.90;;;;;;5066619;28;20029;-81
2022/10/09 03:19:47;;;;;;;7.80;4.90;;;8.60;99.90;;;;;;5067319;28;20033;-83
2022/10/09 03:22:12;;;;;;;8.27;4.50;;;8.60;99.90;;;;;;5067261;28;20036;-81
2022/10/09 03:24:38;;;;;;;5.32;4.32;;;8.60;99.90;;;;;;5056141;28;20472;-81
2022/10/09 03:27:03;;;;;;;5.22;4.43;;;8.60;99.90;;;;;;5065871;28;20094;-81
2022/10/09 03:29:29;;;;;;;7.63;4.82;;;8.60;99.90;;;;;;5068022;28;20048;-81
2022/10/09 03:31:54;;;;;;;8.45;5.30;;;8.60;99.90;;;;;;5066330;28;20471;-81
2022/10/09 03:34:20;;;;;;;9.50;4.90;;;8.50;99.90;;;;;;5068111;28;20112;-81
2022/10/09 03:36:45;;;;;;;5.72;4.88;;;8.60;99.90;;;;;;5066221;28;20047;-81
2022/10/09 03:39:11;;;;;;;5.78;4.55;;;8.50;99.90;;;;;;5064026;28;20121;-81
2022/10/09 03:41:36;;;;;;;8.40;5.20;;;8.50;99.90;;;;;;5065576;28;20040;-81
2022/10/09 03:44:02;;;;;;;8.63;5.32;;;8.50;99.90;;;;;;5065953;28;20041;-81
2022/10/09 03:46:27;;;;;;;9.45;5.80;;;8.50;99.90;;;;;;5063177;28;20407;-80
2022/10/09 03:48:53;;;;;;;10.38;5.38;;;8.50;99.90;;;;;;5066097;28;20036;-80
2022/10/09 03:51:18;;;;;;;10.73;5.22;;;8.50;99.90;;;;;;5068971;28;20032;-83
2022/10/09 03:53:44;;;;;;;8.75;5.13;;;8.50;99.90;;;;;;5073339;28;20031;-81
2022/10/09 03:56:09;;;;;;;8.98;5.40;;;8.50;99.90;;;;;;5076554;28;20099;-80
2022/10/09 03:58:36;;;;;;;8.50;5.25;;;8.50;99.90;;;;;;5085234;28;20033;-81
2022/10/09 04:01:01;;;;;;;6.85;5.20;;;8.50;99.90;;;;;;5079076;28;20029;-81
2022/10/09 04:03:27;;;;;;;15.52;6.72;;;8.50;99.90;;;;;;5078667;28;20066;-80
2022/10/09 04:05:53;;;;;;;8.20;5.28;;;8.40;99.90;;;;;;5080845;28;20025;-80
2022/10/09 04:08:18;;;;;;;9.25;5.65;;;8.50;99.90;;;;;;5075886;28;20051;-82
2022/10/09 04:10:44;;;;;;;9.18;5.82;;;8.40;99.90;;;;;;5049018;28;20501;-82
2022/10/09 04:13:09;;;;;;;10.02;5.90;;;8.40;99.90;;;;;;5063186;28;20285;-81
2022/10/09 04:15:35;;;;;;;8.95;6.10;;;8.40;99.90;;;;;;5066671;28;20028;-81
2022/10/09 04:18:01;;;;;;;9.07;6.00;;;8.40;99.90;;;;;;5048927;28;20051;-81
2022/10/09 04:20:27;;;;;;;13.98;6.47;;;8.40;99.90;;;;;;5066344;28;20074;-81
2022/10/09 04:22:52;;;;;;;10.48;6.10;;;8.40;99.90;;;;;;5066765;28;20036;-81
2022/10/09 04:25:18;;;;;;;12.13;6.50;;;8.40;99.90;;;;;;5066176;28;20020;-81
2022/10/09 04:27:43;;;;;;;12.65;6.63;;;8.40;99.90;;;;;;5079309;28;20478;-81
2022/10/09 04:30:09;;;;;;;11.95;7.00;;;8.40;99.90;;;;;;5084207;28;20036;-80
2022/10/09 04:32:35;;;;;;;15.63;6.97;;;8.50;99.90;;;;;;5072619;28;20100;-80
2022/10/09 04:35:00;;;;;;;9.60;6.30;;;8.50;99.90;;;;;;5066436;28;20124;-82
2022/10/09 04:37:26;;;;;;;8.82;6.30;;;8.50;99.90;;;;;;5064261;28;20064;-82
2022/10/09 04:39:51;;;;;;;10.48;6.50;;;8.50;99.90;;;;;;5072621;28;20200;-81
2022/10/09 04:42:17;;;;;;;14.80;5.88;;;8.50;99.90;;;;;;5052738;28;20016;-80
2022/10/09 04:44:42;;;;;;;9.07;5.78;;;8.50;99.90;;;;;;5064655;28;20029;-80
2022/10/09 04:47:08;;;;;;;9.48;6.90;;;8.60;99.90;;;;;;5065980;28;20047;-80
2022/10/09 04:49:33;;;;;;;7.88;6.18;;;8.60;99.90;;;;;;5049040;28;20615;-80
2022/10/09 04:51:59;;;;;;;6.85;5.70;;;8.60;99.90;;;;;;5065560;28;20068;-80
2022/10/09 04:54:24;;;;;;;9.02;5.57;;;8.60;99.90;;;;;;5064783;28;20028;-81
2022/10/09 04:56:50;;;;;;;7.00;5.30;;;8.50;99.90;;;;;;5066479;28;20051;-81
2022/10/09 04:59:15;;;;;;;11.48;6.90;;;8.50;99.90;;;;;;5072404;28;20082;-80
2022/10/09 05:01:41;;;;;;;7.45;5.43;;;8.50;99.90;;;;;;5071231;28;20059;-82
2022/10/09 05:04:07;;;;;;;7.05;5.13;;;8.50;99.90;;;;;;5068933;28;20024;-81
2022/10/09 05:06:33;;;;;;;8.60;6.25;;;8.50;99.90;;;;;;5068662;28;20378;-80
2022/10/09 05:08:58;;;;;;;7.00;5.65;;;8.50;99.90;;;;;;5069516;28;20040;-81
2022/10/09 05:11:24;;;;;;;9.20;5.55;;;8.40;99.90;;;;;;5067120;28;20036;-80
2022/10/09 05:13:53;;;;;;;9.10;5.38;;;8.40;99.90;;;;;;5069265;28;20114;-81
2022/10/09 05:16:25;;;;;;;9.70;5.32;;;8.40;99.90;;;;;;5069810;28;20036;-80
2022/10/09 05:18:54;;;;;;;7.55;5.30;;;8.40;99.90;;;;;;5063198;28;20109;-82
2022/10/09 05:21:20;;;;;;;6.53;5.55;;;8.40;99.90;;;;;;5069655;28;20036;-80
2022/10/09 05:23:46;;;;;;;9.05;6.20;;;8.40;99.90;;;;;;5057231;28;20063;-80
2022/10/09 05:26:19;;;;;;;8.13;5.40;;;8.30;99.90;;;;;;5067278;28;20060;-80
2022/10/09 05:28:45;;;;;;;10.68;5.18;;;8.30;99.90;;;;;;5065976;28;21447;-80
2022/10/09 05:31:18;;;;;;;8.75;5.40;;;8.30;99.90;;;;;;5069829;28;20506;-80
2022/10/09 05:33:44;;;;;;;8.57;5.25;;;8.30;99.90;;;;;;5069843;28;20426;-80
2022/10/09 05:36:09;;;;;;;7.72;5.45;;;8.30;99.90;;;;;;5052048;28;20033;-82
2022/10/09 05:38:36;;;;;;;9.43;5.47;;;8.30;99.90;;;;;;5068329;28;20437;-81
2022/10/09 05:41:04;;;;;;;7.57;5.53;;;8.20;99.90;;;;;;5069508;28;20048;-80
2022/10/09 05:43:32;;;;;;;9.00;4.90;;;8.20;99.90;;;;;;5050758;28;20032;-79
2022/10/09 05:46:07;;;;;;;11.27;6.13;;;8.20;99.90;;;;;;5065569;28;20032;-79
2022/10/09 05:48:33;;;;;;;7.65;5.65;;;8.20;99.90;;;;;;5068416;28;20029;-80
2022/10/09 05:51:16;;;;;;;8.43;5.45;;;8.20;99.90;;;;;;5072503;28;20037;-80
2022/10/09 05:53:44;;;;;;;9.07;5.47;;;8.20;99.90;;;;;;5068005;28;20522;-81
2022/10/09 05:56:14;;;;;;;9.90;6.43;;;8.20;99.90;;;;;;5067957;28;20040;-79
2022/10/09 05:58:41;;;;;;;9.05;5.95;;;8.20;99.90;;;;;;5071696;28;20070;-79
2022/10/09 06:01:07;;;;;;;7.78;5.72;;;8.20;99.90;;;;;;5064513;28;20498;-80
2022/10/09 06:03:37;;;;;;;9.43;6.00;;;8.20;99.90;;;;;;5045098;28;20046;-80
2022/10/09 06:06:05;;;;;;;8.98;5.65;;;8.20;99.90;;;;;;5065354;28;20036;-80
2022/10/09 06:08:32;;;;;;;12.18;6.00;;;8.20;99.90;;;;;;5069297;28;20029;-79
2022/10/09 06:11:06;;;;;;;14.82;7.40;;;8.30;99.90;;;;;;5070138;28;20029;-81
2022/10/09 06:13:32;;;;;;;10.25;6.22;;;8.30;99.90;;;;;;5069099;28;20035;-80
2022/10/09 06:15:58;;;;;;;9.07;6.13;;;8.30;99.90;;;;;;5064652;28;20029;-80
2022/10/09 06:18:23;;;;;;;8.57;5.47;;;8.30;99.90;;;;;;5066767;28;20570;-81
2022/10/09 06:20:53;;;;;;;7.93;5.88;;;8.30;99.90;;;;;;5065794;28;20032;-81
2022/10/09 06:23:19;;;;;;;9.93;6.40;;;8.40;99.90;;;;;;5066674;28;20044;-83
2022/10/09 06:25:51;;;;;;;10.95;6.30;;;8.40;99.90;;;;;;5065382;28;20020;-80
2022/10/09 06:28:17;;;;;;;18.13;10.82;;;8.40;99.90;;;;;;5066912;28;20078;-81
2022/10/09 06:30:43;;;;;;;26.92;13.30;;;8.50;99.90;;;;;;5051785;28;20037;-83
2022/10/09 06:33:08;;;;;;;19.00;11.98;;;8.50;99.90;;;;;;5066971;28;20522;-82
2022/10/09 06:35:34;;;;;;;24.92;12.90;;;8.60;99.90;;;;;;5046433;28;20036;-81
2022/10/09 06:37:59;;;;;;;22.80;13.45;;;8.60;99.90;;;;;;5065616;28;20043;-83
2022/10/09 06:40:25;;;;;;;26.10;14.85;;;8.60;99.90;;;;;;5062088;28;20062;-81
2022/10/09 06:42:51;;;;;;;17.27;10.13;;;8.70;99.90;;;;;;5049607;28;20029;-81
2022/10/09 06:45:16;;;;;;;17.75;10.90;;;8.70;99.90;;;;;;5046044;28;20116;-80
2022/10/09 06:47:42;;;;;;;16.02;9.75;;;8.80;99.90;;;;;;5046965;28;20059;-80
2022/10/09 06:50:08;;;;;;;13.70;9.57;;;8.90;99.90;;;;;;5046640;28;20032;-80
2022/10/09 06:52:34;;;;;;;15.82;8.10;;;8.90;99.90;;;;;;5056614;28;20033;-80
2022/10/09 06:55:00;;;;;;;15.48;7.32;;;9.00;99.90;;;;;;5062281;28;20025;-81
2022/10/09 06:57:25;;;;;;;12.43;6.72;;;9.00;99.90;;;;;;5059600;28;20035;-80
2022/10/09 06:59:51;;;;;;;11.10;6.88;;;9.10;99.90;;;;;;5061769;28;20386;-81
2022/10/09 07:02:16;;;;;;;13.07;6.50;;;9.20;99.90;;;;;;5062682;28;20264;-81
2022/10/09 07:04:42;;;;;;;10.95;6.57;;;9.20;99.90;;;;;;5039208;28;20020;-81
2022/10/09 07:07:08;;;;;;;12.90;7.25;;;9.30;99.90;;;;;;5058836;28;20121;-81
2022/10/09 07:09:33;;;;;;;8.77;6.75;;;9.40;99.90;;;;;;5058754;28;20048;-82
2022/10/09 07:11:59;;;;;;;9.13;6.50;;;9.40;99.90;;;;;;5055516;28;20037;-80
2022/10/09 07:14:24;;;;;;;9.50;5.85;;;9.50;99.90;;;;;;5052656;28;20553;-80
2022/10/09 07:16:51;;;;;;;9.80;5.50;;;9.60;99.90;;;;;;5060647;28;20591;-82
2022/10/09 07:19:17;;;;;;;14.70;6.88;;;9.60;99.90;;;;;;5047484;28;20477;-81
2022/10/09 07:21:44;;;;;;;11.43;6.40;;;9.70;99.90;;;;;;5060554;28;20081;-81
2022/10/09 07:24:11;;;;;;;12.27;6.10;;;9.80;99.90;;;;;;5064167;28;20028;-82
2022/10/09 07:26:39;;;;;;;7.45;4.55;;;9.80;99.90;;;;;;5062306;28;20037;-82
2022/10/09 07:29:07;;;;;;;7.57;4.88;;;9.90;99.90;;;;;;5044883;28;20093;-81
2022/10/09 07:31:32;;;;;;;18.27;6.70;;;9.90;99.90;;;;;;5063049;28;20024;-81
2022/10/09 07:33:58;;;;;;;9.23;6.07;;;10.00;99.90;;;;;;5060220;28;20040;-81
2022/10/09 07:36:24;;;;;;;11.40;5.90;;;10.10;99.90;;;;;;5061481;28;20082;-81
2022/10/09 07:38:54;;;;;;;10.48;6.30;;;10.20;99.90;;;;;;5068165;28;20033;-80
2022/10/09 07:41:21;;;;;;;6.68;4.88;;;10.30;99.90;;;;;;5053415;28;20382;-81
2022/10/09 07:43:47;;;;;;;12.07;5.57;;;10.40;99.90;;;;;;5075024;28;20047;-81
2022/10/09 07:46:15;;;;;;;5.47;4.20;;;10.50;99.90;;;;;;5075891;28;20033;-81
2022/10/09 07:48:41;;;;;;;9.48;4.00;;;10.50;99.90;;;;;;5077643;28;20079;-80
2022/10/09 07:51:09;;;;;;;9.32;4.70;;;10.60;99.90;;;;;;5079575;28;20034;-81
2022/10/09 07:53:35;;;;;;;11.07;5.45;;;10.70;99.90;;;;;;5066154;28;20036;-80
2022/10/09 07:56:01;;;;;;;9.48;5.43;;;10.70;99.90;;;;;;5060598;28;20828;-81
2022/10/09 07:58:26;;;;;;;7.60;3.90;;;10.80;99.90;;;;;;5042808;28;20637;-82
2022/10/09 08:00:52;;;;;;;8.20;4.85;;;10.80;99.90;;;;;;5063838;28;20394;-80
2022/10/09 08:03:18;;;;;;;7.95;4.50;;;10.90;99.90;;;;;;5059469;28;20376;-80
2022/10/09 08:05:53;;;;;;;7.80;4.90;;;11.00;99.90;;;;;;5062970;28;20545;-81
2022/10/09 08:08:18;;;;;;;8.80;4.57;;;11.10;99.90;;;;;;5064919;28;20847;-82
2022/10/09 08:10:44;;;;;;;10.32;4.05;;;11.10;99.90;;;;;;5065881;28;20112;-81
2022/10/09 08:13:09;;;;;;;6.47;4.65;;;11.20;99.90;;;;;;5068339;28;20111;-81
2022/10/09 08:15:42;;;;;;;7.03;4.72;;;11.40;99.90;;;;;;5066653;28;20024;-81
2022/10/09 08:18:09;;;;;;;6.82;4.43;;;11.40;99.90;;;;;;5063254;28;20111;-81
2022/10/09 08:20:35;;;;;;;9.65;4.28;;;11.50;99.90;;;;;;5063250;28;20025;-82
2022/10/09 08:23:00;;;;;;;6.20;3.90;;;11.60;99.90;;;;;;5068973;28;20047;-81
2022/10/09 08:25:26;;;;;;;8.63;3.58;;;11.70;99.90;;;;;;5069248;28;20140;-81
2022/10/09 08:27:52;;;;;;;7.53;4.20;;;11.80;99.90;;;;;;5068957;28;20102;-81
2022/10/09 08:30:17;;;;;;;5.97;3.33;;;11.90;99.90;;;;;;5068521;28;20033;-81
2022/10/09 08:32:43;;;;;;;6.65;3.60;;;12.00;99.90;;;;;;5083522;28;20029;-81
2022/10/09 08:35:09;;;;;;;7.13;3.22;;;12.10;99.90;;;;;;5077069;28;20047;-80
2022/10/09 08:37:34;;;;;;;8.45;3.63;;;12.20;99.90;;;;;;5074869;28;20031;-82
2022/10/09 08:40:00;;;;;;;5.50;3.38;;;12.30;99.90;;;;;;5056575;28;20070;-82
2022/10/09 08:42:34;;;;;;;6.68;3.85;;;12.40;99.90;;;;;;5074738;28;20035;-82
2022/10/09 08:45:01;;;;;;;15.82;5.32;;;12.50;99.90;;;;;;5051270;28;20033;-82
2022/10/09 08:47:55;;;;;;;13.20;3.90;;;12.60;99.90;;;;;;5050380;28;20042;-83
2022/10/09 08:50:36;;;;;;;6.78;4.07;;;12.70;99.90;;;;;;5063569;28;20502;-80
2022/10/09 08:53:12;;;;;;;7.28;3.55;;;12.80;99.90;;;;;;5068602;28;20037;-82
2022/10/09 08:55:46;;;;;;;5.45;3.53;;;13.00;99.90;;;;;;5067725;28;20496;-81
2022/10/09 08:58:17;;;;;;;7.82;3.75;;;13.10;99.90;;;;;;5062275;28;20068;-80
2022/10/09 09:00:56;;;;;;;6.22;3.63;;;13.20;99.90;;;;;;5063159;28;20285;-81
2022/10/09 09:03:34;;;;;;;8.80;4.22;;;13.30;99.90;;;;;;5049141;28;20527;-80
2022/10/09 09:06:05;;;;;;;7.72;2.95;;;13.40;99.90;;;;;;5054232;28;20656;-80
2022/10/09 09:08:30;;;;;;;10.38;3.38;;;13.50;99.90;;;;;;5066966;28;20422;-80
2022/10/09 09:11:52;;;;;;;12.63;3.50;;;13.60;99.90;;;;;;5071903;28;20043;-81
2022/10/09 09:14:36;;;;;;;8.77;3.45;;;13.70;99.90;;;;;;4950386;28;20041;-81
2022/10/09 09:17:24;;;;;;;8.20;3.30;;;13.90;99.90;;;;;;4972177;28;20022;-80
2022/10/09 09:20:16;;;;;;;6.07;3.17;;;13.90;99.90;;;;;;5037727;28;20062;-80
2022/10/09 09:22:46;;;;;;;6.18;2.55;;;14.00;99.90;;;;;;5064172;28;20028;-81
2022/10/09 09:25:22;;;;;;;7.97;3.58;;;14.10;99.90;;;;;;5042217;28;20078;-81
2022/10/09 09:27:51;;;;;;;8.10;2.30;;;14.20;99.90;;;;;;5059043;28;20107;-82
2022/10/09 09:30:26;;;;;;;10.27;2.17;;;14.20;99.90;;;;;;5066523;28;20067;-81
2022/10/09 09:33:00;;;;;;;4.85;2.03;;;14.30;99.90;;;;;;5060318;28;21829;-81
2022/10/09 09:35:47;;;;;;;3.80;1.92;;;14.40;99.90;;;;;;5065024;28;20062;-81
2022/10/09 09:38:14;;;;;;;8.98;2.40;;;14.40;99.90;;;;;;5058415;28;20043;-81
2022/10/09 09:40:39;;;;;;;6.13;1.83;;;14.50;99.90;;;;;;5066599;28;20020;-82
2022/10/09 09:43:15;;;;;;;6.18;2.25;;;14.60;99.90;;;;;;5063114;28;20020;-82
2022/10/09 09:45:42;;;;;;;7.00;2.42;;;14.60;99.90;;;;;;5065897;28;20054;-81
2022/10/09 09:48:36;;;;;;;5.13;2.03;;;14.70;99.90;;;;;;5068781;28;20545;-81
2022/10/09 09:51:04;;;;;;;4.93;1.95;;;14.90;99.90;;;;;;5051406;28;20037;-81
2022/10/09 09:53:38;;;;;;;17.63;3.00;;;15.00;99.90;;;;;;5044894;28;20024;-81
2022/10/09 09:56:04;;;;;;;11.43;2.30;;;15.00;99.90;;;;;;5060912;28;20055;-82
2022/10/09 09:58:38;;;;;;;5.72;2.05;;;15.20;99.90;;;;;;5065062;28;20107;-83
2022/10/09 10:01:05;;;;;;;7.03;1.58;;;15.30;99.90;;;;;;5049525;28;20024;-83
2022/10/09 10:03:34;;;;;;;5.07;1.77;;;15.40;99.90;;;;;;5065829;28;20024;-83
2022/10/09 10:06:00;;;;;;;2.50;1.20;;;15.40;99.90;;;;;;5045507;28;20582;-82
2022/10/09 10:08:33;;;;;;;5.60;1.63;;;15.50;99.90;;;;;;5064852;28;20051;-82
2022/10/09 10:10:59;;;;;;;;;;;15.60;99.90;;;;;;5066712;28;20028;-81
2022/10/09 10:13:44;;;;;;;6.68;1.65;;;15.70;99.90;;;;;;5060737;28;19919;-82
2022/10/09 10:16:21;;;;;;;5.20;1.50;;;15.80;99.90;;;;;;5063863;28;20032;-82
2022/10/09 10:18:47;;;;;;;7.15;1.83;;;15.90;99.90;;;;;;5058831;28;20021;-81
2022/10/09 10:21:16;;;;;;;4.95;1.40;;;16.00;99.90;;;;;;5059440;28;20035;-82
2022/10/09 10:23:55;;;;;;;5.97;2.00;;;15.90;99.90;;;;;;5061664;28;20025;-82
2022/10/09 10:26:42;;;;;;;5.00;2.03;;;16.00;99.90;;;;;;5057219;28;20036;-83
2022/10/09 10:29:29;;;;;;;4.15;1.40;;;16.10;99.90;;;;;;5064586;28;20220;-82
2022/10/09 10:32:16;;;;;;;4.07;1.55;;;16.20;99.90;;;;;;5061679;28;20028;-82
2022/10/09 10:35:00;;;;;;;4.05;1.13;;;16.20;99.90;;;;;;5058849;28;20028;-82
2022/10/09 10:37:40;;;;;;;2.08;1.38;;;16.30;99.90;;;;;;5063321;28;20428;-82
2022/10/09 10:40:27;;;;;;;5.78;1.45;;;16.30;99.90;;;;;;5067661;28;20031;-82
2022/10/09 10:43:10;;;;;;;5.07;1.10;;;16.50;99.90;;;;;;5067965;28;20093;-81
2022/10/09 10:45:42;;;;;;;5.00;1.38;;;16.50;99.90;;;;;;5059035;28;20032;-83
2022/10/09 10:48:16;;;;;;;5.50;1.58;;;16.60;99.90;;;;;;5063753;28;20047;-83
2022/10/09 10:50:53;;;;;;;5.38;1.77;;;16.60;99.90;;;;;;5065276;28;20033;-83
2022/10/09 10:53:39;;;;;;;6.63;1.20;;;16.60;99.90;;;;;;5059544;28;20043;-83
2022/10/09 10:56:24;;;;;;;4.70;1.08;;;16.60;99.90;;;;;;5057783;28;20072;-83
2022/10/09 10:58:58;;;;;;;2.75;0.82;;;16.70;99.90;;;;;;5061783;28;20032;-83
2022/10/09 11:01:51;;;;;;;7.63;1.30;;;16.70;99.90;;;;;;5090651;28;20055;-81
2022/10/09 11:04:46;;;;;;;2.55;0.65;;;16.70;99.90;;;;;;5091156;28;20034;-83
2022/10/09 11:07:28;;;;;;;3.40;1.00;;;16.80;99.90;;;;;;5090484;28;20145;-82
2022/10/09 11:10:14;;;;;;;4.33;1.40;;;17.00;99.90;;;;;;5091979;28;20036;-83
2022/10/09 11:12:56;;;;;;;7.65;0.90;;;17.10;99.80;;;;;;5074273;28;20672;-84
2022/10/09 11:15:41;;;;;;;4.32;1.38;;;17.20;99.90;;;;;;5075829;28;20086;-83
2022/10/09 11:18:28;;;;;;;4.07;1.38;;;17.30;99.90;;;;;;5078635;28;20036;-82
2022/10/09 11:21:24;;;;;;;4.38;1.05;;;17.40;99.90;;;;;;5084326;28;20035;-82
2022/10/09 11:24:15;;;;;;;3.47;1.25;;;17.50;99.90;;;;;;5064244;28;20040;-82
2022/10/09 11:26:49;;;;;;;8.82;1.30;;;17.70;99.60;;;;;;5080747;28;20028;-82
2022/10/09 11:29:25;;;;;;;7.60;1.65;;;17.80;98.60;;;;;;5094720;28;20099;-82
2022/10/09 11:31:57;;;;;;;3.42;1.08;;;17.90;98.60;;;;;;5104821;28;20020;-83
2022/10/09 11:34:42;;;;;;;3.20;1.30;;;18.10;98.10;;;;;;5090593;28;20536;-83
2022/10/09 11:37:15;;;;;;;3.42;0.90;;;18.10;96.90;;;;;;5089278;28;20036;-83
2022/10/09 11:39:41;;;;;;;5.55;0.85;;;18.20;97.60;;;;;;5090384;28;20127;-82
2022/10/09 11:42:10;;;;;;;3.67;1.10;;;18.30;95.80;;;;;;5077157;28;20075;-83
2022/10/09 11:45:01;;;;;;;1.77;0.80;;;18.30;96.60;;;;;;5071884;28;20584;-83
2022/10/09 11:47:43;;;;;;;3.58;1.23;;;18.30;95.90;;;;;;5066724;28;20738;-84
2022/10/09 11:50:33;;;;;;;5.65;0.85;;;18.40;96.70;;;;;;5089174;28;20046;-83
2022/10/09 11:53:04;;;;;;;4.15;0.93;;;18.60;96.10;;;;;;5089519;28;20168;-83
2022/10/09 11:55:32;;;;;;;5.75;0.90;;;18.60;95.20;;;;;;5086541;28;20087;-83
2022/10/09 11:58:19;;;;;;;3.00;0.80;;;18.60;94.90;;;;;;5045734;28;20024;-83
2022/10/09 12:00:49;;;;;;;10.82;0.93;;;18.70;94.00;;;;;;5061103;28;20024;-84
2022/10/09 12:03:34;;;;;;;1.42;0.77;;;18.80;94.00;;;;;;5063880;28;20074;-84
2022/10/09 12:06:26;;;;;;;6.28;1.05;;;18.90;94.90;;;;;;5054973;28;20037;-83
2022/10/09 12:08:58;;;;;;;4.85;1.10;;;18.90;94.60;;;;;;5049843;28;20058;-83
2022/10/09 12:11:25;;;;;;;2.22;0.77;;;19.00;95.10;;;;;;5069306;28;20172;-83
2022/10/09 12:13:53;;;;;;;4.55;1.10;;;19.00;94.80;;;;;;5070721;28;20025;-84
2022/10/09 12:16:35;;;;;;;4.88;0.85;;;19.10;94.30;;;;;;5052271;28;20538;-83
2022/10/09 12:19:14;;;;;;;5.65;1.08;;;19.10;93.70;;;;;;5048559;28;20607;-83
2022/10/09 12:21:51;;;;;;;2.78;0.90;;;19.20;93.60;;;;;;5049033;28;20033;-84
2022/10/09 12:24:27;;;;;;;3.67;1.15;;;19.30;94.00;;;;;;5047576;28;20102;-84
2022/10/09 12:26:54;;;;;;;3.10;0.93;;;19.30;94.00;;;;;;5048690;28;20037;-84
2022/10/09 12:29:30;;;;;;;4.13;1.20;;;19.40;94.20;;;;;;5058057;28;20556;-84
2022/10/09 12:32:01;;;;;;;9.23;2.25;;;19.50;94.80;;;;;;5090754;28;20043;-83
2022/10/09 12:34:31;;;;;;;4.72;1.05;;;19.50;93.60;;;;;;5092569;28;20537;-84
2022/10/09 12:37:10;;;;;;;5.53;1.30;;;19.50;92.80;;;;;;5089042;28;20051;-83
2022/10/09 12:39:36;;;;;;;3.85;1.05;;;19.60;92.70;;;;;;5094309;28;20055;-82
2022/10/09 12:42:03;;;;;;;1.77;0.98;;;19.70;92.20;;;;;;5076457;28;20052;-83
2022/10/09 12:44:34;;;;;;;2.15;0.77;;;19.70;92.20;;;;;;5077175;28;20016;-83
2022/10/09 12:47:06;;;;;;;3.90;1.17;;;19.70;91.80;;;;;;5090870;28;20035;-83
2022/10/09 12:49:32;;;;;;;3.25;0.52;;;19.70;91.80;;;;;;5089723;28;20156;-83
2022/10/09 12:51:59;;;;;;;2.35;0.50;;;19.80;91.10;;;;;;5089320;28;20116;-81
2022/10/09 12:54:28;;;;;;;5.15;0.77;;;19.80;90.60;;;;;;5064564;28;20070;-82
2022/10/09 12:56:56;;;;;;;3.88;0.70;;;19.90;90.60;;;;;;5067664;28;20086;-82
2022/10/09 12:59:24;;;;;;;1.80;0.80;;;19.90;91.20;;;;;;5073229;28;20028;-83
2022/10/09 13:01:55;;;;;;;2.17;0.70;;;19.90;89.90;;;;;;5076830;28;20028;-82
2022/10/09 13:04:27;;;;;;;1.30;0.70;;;19.90;89.80;;;;;;5050625;28;20025;-81
2022/10/09 13:06:53;;;;;;;2.25;0.75;;;20.00;90.20;;;;;;5067389;28;20021;-81
2022/10/09 13:09:33;;;;;;;8.38;0.75;;;20.10;89.30;;;;;;5068206;28;20045;-82